Current Conditions
Fog
Conditions



Pressure
1018.92 (hPa) - 30.09 (inHG)
Visibility

0.3 (km) - 0.2 (miles)
Temperature
0  °C
Temperature
0  °C
Dewpoint
100  %
 Humidity
Wind Speed
3  km/h
2  kts
2  mph
0.9  m/s
Wind Direction
N
45°
E
90°
135°
S
180°
225°
W
270°
315°
 10°

Due North
Airport Data
LIME
Milan Bergamo Airport
Metar :LIME 210350Z AUTO 01002KT 0300 0050NW R28/P1500N FG BKN001 00/M00 Q1019
Fri 21st January 04:50 am
Raw Metar Info
Raw METAR is the most common format in the world for the transmission of observational weather data. It is highly standardized through the International Civil Aviation Organization (ICAO), which allows it to be understood throughout most of the world.
API Info
Data Provided by
https://www.checkwx.com/weather/LIME

Aviation Weather providing METAR, TAF, AIRMET, SIGMET and OUTLOOK Weather Reports
© Info
CSS/SVG/PHP scripts were developed by weather34 for use in the weather34 template © 2015-2022

Guide Info provided by Metar-Wikipedia